Time;durP1;ratioP1;P1;durP2;ratioP2;P2;SDS_P1;SDS_P2;PMS_P1;PMS_P2;Temp;Humidity;BMP_temperature;BMP_pressure;BME280_temperature;BME280_humidity;BME280_pressure;Samples;Min_cycle;Max_cycle;Signal;HPM_P1;HPM_P2
2022/05/10 00:01:59;;;;;;;15.07;9.43;;;15.50;99.90;;;;;;5074168;28;20206;-79
2022/05/10 00:04:26;;;;;;;13.13;9.10;;;15.50;99.90;;;;;;5074257;28;20205;-79
2022/05/10 00:06:55;;;;;;;14.03;9.53;;;15.50;99.90;;;;;;5074319;28;20206;-81
2022/05/10 00:09:27;;;;;;;22.13;10.53;;;15.50;99.90;;;;;;5074143;28;20202;-79
2022/05/10 00:11:54;;;;;;;16.50;9.83;;;15.40;99.90;;;;;;5074070;28;20717;-79
2022/05/10 00:14:22;;;;;;;15.63;9.70;;;15.40;99.90;;;;;;5074044;28;20209;-79
2022/05/10 00:16:51;;;;;;;18.92;10.90;;;15.40;99.90;;;;;;5074033;28;20448;-79
2022/05/10 00:19:19;;;;;;;21.43;9.97;;;15.50;99.90;;;;;;5074102;28;20560;-79
2022/05/10 00:21:47;;;;;;;12.63;9.90;;;15.50;99.90;;;;;;5073842;28;20285;-79
2022/05/10 00:24:16;;;;;;;21.13;10.33;;;15.50;99.90;;;;;;5073971;28;20206;-79
2022/05/10 00:26:43;;;;;;;18.30;10.43;;;15.40;99.90;;;;;;5073588;28;20209;-79
2022/05/10 00:29:11;;;;;;;16.27;10.73;;;15.40;99.90;;;;;;5073865;28;20209;-79
2022/05/10 00:31:38;;;;;;;18.73;10.53;;;15.40;99.90;;;;;;5073843;28;20193;-80
2022/05/10 00:34:06;;;;;;;19.33;10.13;;;15.30;99.90;;;;;;5073921;28;20567;-79
2022/05/10 00:36:33;;;;;;;15.80;10.30;;;15.30;99.90;;;;;;5073268;28;20233;-79
2022/05/10 00:39:01;;;;;;;20.77;10.60;;;15.20;99.90;;;;;;5073425;28;20657;-79
2022/05/10 00:41:33;;;;;;;18.38;11.68;;;15.20;99.90;;;;;;5072850;28;20926;-79
2022/05/10 00:44:15;;;;;;;20.97;11.20;;;15.30;99.90;;;;;;5073639;28;20202;-79
2022/05/10 00:46:46;;;;;;;14.57;10.83;;;15.20;99.90;;;;;;5073520;28;20201;-79
2022/05/10 00:49:23;;;;;;;19.53;9.90;;;15.20;99.90;;;;;;5073586;28;20560;-79
2022/05/10 00:51:56;;;;;;;17.77;11.27;;;15.30;99.90;;;;;;5072968;28;20651;-79
2022/05/10 00:54:30;;;;;;;17.33;10.10;;;15.30;99.90;;;;;;5073276;28;20186;-80
2022/05/10 00:57:12;;;;;;;20.67;9.77;;;15.30;99.90;;;;;;5073561;28;20221;-79
2022/05/10 00:59:52;;;;;;;20.57;11.00;;;15.40;99.90;;;;;;5072986;28;20226;-79
2022/05/10 01:02:29;;;;;;;15.17;10.67;;;15.40;99.90;;;;;;5074536;28;20214;-79
2022/05/10 01:04:59;;;;;;;15.83;11.00;;;15.30;99.90;;;;;;5072628;28;20202;-79
2022/05/10 01:07:35;;;;;;;16.47;9.93;;;15.20;99.90;;;;;;5071866;28;20570;-78
2022/05/10 01:10:08;;;;;;;17.57;11.40;;;15.20;99.90;;;;;;5073044;28;20209;-81
2022/05/10 01:12:43;;;;;;;17.97;11.33;;;15.10;99.90;;;;;;5073134;28;20190;-79
2022/05/10 01:15:13;;;;;;;18.80;10.67;;;15.10;99.90;;;;;;5073514;28;20209;-79
2022/05/10 01:17:40;;;;;;;23.57;12.23;;;15.00;99.90;;;;;;5073163;28;20265;-81
2022/05/10 01:20:09;;;;;;;16.33;10.70;;;15.10;99.90;;;;;;5072211;28;20216;-79
2022/05/10 01:22:53;;;;;;;17.33;10.73;;;15.10;99.90;;;;;;5072948;28;20664;-79
2022/05/10 01:25:36;;;;;;;14.43;10.50;;;15.10;99.90;;;;;;5072957;28;20337;-80
2022/05/10 01:28:24;;;;;;;17.23;10.70;;;15.00;99.90;;;;;;5072898;28;20229;-79
2022/05/10 01:30:51;;;;;;;17.57;10.53;;;15.00;99.90;;;;;;5072876;28;20213;-79
2022/05/10 01:33:30;;;;;;;17.83;10.70;;;15.00;99.90;;;;;;5073438;28;20206;-79
2022/05/10 01:36:19;;;;;;;16.70;11.20;;;15.00;99.90;;;;;;5072854;28;20210;-79
2022/05/10 01:38:54;;;;;;;15.93;10.37;;;14.80;99.90;;;;;;5072875;28;20234;-79
2022/05/10 01:41:30;;;;;;;15.73;11.10;;;14.80;99.90;;;;;;5073044;28;20201;-79
2022/05/10 01:44:10;;;;;;;18.77;10.73;;;14.80;99.90;;;;;;5072959;28;20205;-79
2022/05/10 01:46:38;;;;;;;19.10;11.33;;;14.80;99.90;;;;;;5072632;28;20649;-79
2022/05/10 01:49:17;;;;;;;14.07;10.50;;;14.70;99.90;;;;;;5072839;28;20562;-79
2022/05/10 01:51:50;;;;;;;19.37;11.77;;;14.70;99.90;;;;;;5072884;28;20190;-81
2022/05/10 01:55:02;;;;;;;18.55;12.55;;;14.70;99.90;;;;;;5071659;28;20424;-79
2022/05/10 01:57:30;;;;;;;16.40;10.63;;;14.90;99.90;;;;;;5053352;28;20234;-79
2022/05/10 02:00:07;;;;;;;22.40;11.43;;;14.80;99.90;;;;;;5072728;28;20230;-79
2022/05/10 02:02:36;;;;;;;16.70;10.97;;;14.70;99.90;;;;;;5072622;28;20209;-80
2022/05/10 02:05:08;;;;;;;19.83;10.80;;;14.70;99.90;;;;;;5072366;28;20649;-79
2022/05/10 02:07:37;;;;;;;16.67;10.90;;;14.80;99.90;;;;;;5076138;28;20236;-79
2022/05/10 02:10:08;;;;;;;20.53;11.27;;;14.80;99.90;;;;;;5078224;28;20213;-79
2022/05/10 02:12:40;;;;;;;19.80;10.90;;;14.80;99.90;;;;;;5076753;28;20208;-79
2022/05/10 02:15:17;;;;;;;19.10;12.23;;;14.80;99.90;;;;;;5074744;28;20198;-79
2022/05/10 02:17:48;;;;;;;14.30;11.67;;;14.90;99.90;;;;;;5076447;28;20213;-79
2022/05/10 02:20:21;;;;;;;21.43;11.53;;;14.80;99.90;;;;;;5076408;28;20615;-79
2022/05/10 02:22:54;;;;;;;22.60;11.90;;;14.80;99.90;;;;;;5076638;28;20672;-79
2022/05/10 02:25:26;;;;;;;25.97;11.37;;;14.80;99.90;;;;;;5076286;28;20198;-79
2022/05/10 02:27:59;;;;;;;19.83;11.57;;;14.70;99.90;;;;;;5076353;28;20205;-79
2022/05/10 02:30:31;;;;;;;16.20;11.43;;;14.70;99.90;;;;;;5076208;28;20288;-79
2022/05/10 02:33:07;;;;;;;19.47;11.30;;;14.80;99.90;;;;;;5075928;28;20704;-79
2022/05/10 02:35:39;;;;;;;22.03;12.10;;;14.80;99.90;;;;;;5076160;28;20210;-81
2022/05/10 02:38:07;;;;;;;16.03;11.43;;;14.90;99.90;;;;;;5076104;28;20246;-82
2022/05/10 02:40:34;;;;;;;17.50;11.23;;;14.80;99.90;;;;;;5074769;28;20190;-78
2022/05/10 02:43:02;;;;;;;17.73;11.27;;;14.90;99.90;;;;;;5075724;28;20211;-79
2022/05/10 02:45:30;;;;;;;15.43;11.27;;;15.00;99.90;;;;;;5075824;28;20217;-80
2022/05/10 02:48:02;;;;;;;21.77;12.20;;;15.00;99.90;;;;;;5075516;28;20218;-79
2022/05/10 02:50:35;;;;;;;19.17;11.97;;;15.10;99.90;;;;;;5075823;28;20192;-79
2022/05/10 02:53:02;;;;;;;22.60;12.27;;;15.20;99.90;;;;;;5075928;28;20252;-79
2022/05/10 02:55:35;;;;;;;18.27;11.37;;;15.30;99.90;;;;;;5075954;28;20205;-79
2022/05/10 02:58:09;;;;;;;13.77;10.33;;;15.40;99.90;;;;;;5075708;28;20224;-78
2022/05/10 03:00:38;;;;;;;19.17;11.50;;;15.40;99.90;;;;;;5075538;28;20304;-82
2022/05/10 03:03:10;;;;;;;18.47;11.60;;;15.50;99.90;;;;;;5075506;28;20206;-79
2022/05/10 03:05:37;;;;;;;15.93;11.33;;;15.40;99.90;;;;;;5075617;28;20568;-79
2022/05/10 03:08:05;;;;;;;18.13;10.83;;;15.40;99.90;;;;;;5075693;28;20197;-79
2022/05/10 03:10:32;;;;;;;17.07;11.23;;;15.50;99.90;;;;;;5075952;28;20220;-79
2022/05/10 03:12:59;;;;;;;18.00;10.30;;;15.60;99.90;;;;;;5075144;28;20653;-79
2022/05/10 03:15:26;;;;;;;18.77;10.97;;;15.60;99.90;;;;;;5075205;28;20205;-79
2022/05/10 03:17:54;;;;;;;16.33;11.10;;;15.70;99.90;;;;;;5075274;28;20230;-79
2022/05/10 03:20:22;;;;;;;21.27;11.87;;;15.80;99.90;;;;;;5075360;28;20207;-79
2022/05/10 03:22:49;;;;;;;15.90;10.77;;;15.80;99.90;;;;;;5075052;28;20190;-79
2022/05/10 03:25:16;;;;;;;17.33;11.97;;;15.70;99.90;;;;;;5075022;28;20207;-78
2022/05/10 03:27:45;;;;;;;16.07;11.53;;;15.60;99.90;;;;;;5075143;28;20203;-79
2022/05/10 03:30:15;;;;;;;15.38;12.38;;;15.70;99.90;;;;;;5074299;28;20479;-79
2022/05/10 03:32:42;;;;;;;18.53;12.33;;;15.80;99.90;;;;;;5075038;28;20201;-78
2022/05/10 03:35:12;;;;;;;15.63;12.33;;;15.80;99.90;;;;;;5075018;28;20195;-79
2022/05/10 03:37:38;;;;;;;18.90;11.53;;;15.70;99.90;;;;;;5075044;28;20214;-79
2022/05/10 03:40:07;;;;;;;16.07;11.70;;;15.60;99.90;;;;;;5074950;28;20206;-79
2022/05/10 03:42:33;;;;;;;17.83;12.10;;;15.50;99.90;;;;;;5074695;28;20233;-79
2022/05/10 03:45:00;;;;;;;15.07;12.23;;;15.60;99.90;;;;;;5074534;28;20209;-79
2022/05/10 03:47:28;;;;;;;15.80;11.70;;;15.70;99.90;;;;;;5075058;28;20214;-80
2022/05/10 03:49:56;;;;;;;16.20;12.07;;;15.60;99.90;;;;;;5074960;28;20578;-79
2022/05/10 03:52:24;;;;;;;17.73;12.80;;;15.60;99.90;;;;;;5074366;28;20751;-79
2022/05/10 03:54:52;;;;;;;17.85;13.13;;;15.50;99.90;;;;;;5074004;28;20427;-79
2022/05/10 03:57:19;;;;;;;16.90;12.87;;;15.60;99.90;;;;;;5074410;28;20215;-79
2022/05/10 03:59:46;;;;;;;19.47;11.93;;;15.60;99.90;;;;;;5074037;28;20234;-78
2022/05/10 04:02:14;;;;;;;14.90;11.70;;;15.60;99.90;;;;;;5074090;28;20293;-79
2022/05/10 04:04:41;;;;;;;17.00;11.13;;;15.70;99.90;;;;;;5074518;28;20202;-79
2022/05/10 04:07:09;;;;;;;17.20;11.87;;;15.60;99.90;;;;;;5074590;28;20192;-79
2022/05/10 04:09:38;;;;;;;18.53;12.03;;;15.60;99.90;;;;;;5073939;28;20578;-78
2022/05/10 04:12:11;;;;;;;14.90;10.97;;;15.50;99.90;;;;;;5074200;28;20191;-79
2022/05/10 04:14:38;;;;;;;13.23;10.87;;;15.60;99.90;;;;;;5073826;28;20684;-79
2022/05/10 04:17:05;;;;;;;17.53;11.10;;;15.50;99.90;;;;;;5074541;28;20202;-79
2022/05/10 04:19:32;;;;;;;13.63;11.30;;;15.50;99.90;;;;;;5073711;28;20218;-79
2022/05/10 04:21:59;;;;;;;15.97;11.00;;;15.50;99.90;;;;;;5074054;28;20212;-79
2022/05/10 04:24:26;;;;;;;13.27;10.67;;;15.50;99.90;;;;;;5073929;28;20206;-79
2022/05/10 04:26:56;;;;;;;17.57;11.37;;;15.50;99.90;;;;;;5073877;28;20202;-79
2022/05/10 04:29:23;;;;;;;15.97;10.63;;;15.50;99.90;;;;;;5073221;28;20213;-79
2022/05/10 04:31:49;;;;;;;20.33;11.03;;;15.50;99.90;;;;;;5073680;28;20211;-78
2022/05/10 04:34:16;;;;;;;15.13;10.90;;;15.50;99.90;;;;;;5073602;28;20202;-79
2022/05/10 04:36:44;;;;;;;15.73;10.17;;;15.50;99.90;;;;;;5073389;28;20206;-79
2022/05/10 04:39:12;;;;;;;15.80;9.87;;;15.50;99.90;;;;;;5073625;28;20226;-78
2022/05/10 04:41:43;;;;;;;20.50;10.73;;;15.70;99.90;;;;;;5073748;28;20190;-80
2022/05/10 04:44:12;;;;;;;19.33;10.80;;;15.70;99.90;;;;;;5073195;28;20267;-80
2022/05/10 04:46:40;;;;;;;13.53;10.53;;;15.60;99.90;;;;;;5073827;28;20205;-81
2022/05/10 04:49:09;;;;;;;15.37;10.60;;;15.70;99.90;;;;;;5073540;28;20748;-81
2022/05/10 04:51:37;;;;;;;17.87;10.77;;;15.90;99.90;;;;;;5073533;28;20744;-83
2022/05/10 04:54:05;;;;;;;14.33;10.93;;;15.90;99.90;;;;;;5073693;28;20206;-81
2022/05/10 04:56:32;;;;;;;15.67;10.40;;;16.00;99.90;;;;;;5073777;28;20209;-81
2022/05/10 04:58:58;;;;;;;12.77;10.20;;;16.20;99.90;;;;;;5072609;28;20233;-80
2022/05/10 05:01:29;;;;;;;11.27;10.07;;;16.20;99.90;;;;;;5076811;28;20208;-81
2022/05/10 05:03:59;;;;;;;12.23;9.83;;;16.30;99.90;;;;;;5092878;28;20198;-80
2022/05/10 05:06:26;;;;;;;14.93;10.35;;;16.20;99.90;;;;;;5091690;28;20415;-80
2022/05/10 05:08:53;;;;;;;11.90;10.03;;;16.10;99.90;;;;;;5093190;28;20712;-80
2022/05/10 05:11:21;;;;;;;11.50;10.30;;;16.20;99.90;;;;;;5093331;28;20207;-80
2022/05/10 05:13:47;;;;;;;14.40;10.47;;;16.30;99.90;;;;;;5093491;28;20191;-79
2022/05/10 05:16:14;;;;;;;11.83;9.83;;;16.30;99.90;;;;;;5093777;28;20207;-80
2022/05/10 05:18:43;;;;;;;14.90;9.70;;;16.40;99.90;;;;;;5093043;28;20589;-80
2022/05/10 05:21:10;;;;;;;11.93;10.00;;;16.50;99.90;;;;;;5093583;28;20214;-80
2022/05/10 05:23:37;;;;;;;18.60;10.73;;;16.50;99.90;;;;;;5093360;28;20212;-82
2022/05/10 05:26:05;;;;;;;13.07;10.03;;;16.60;99.90;;;;;;5092894;28;20196;-83
2022/05/10 05:28:32;;;;;;;13.40;9.67;;;16.80;99.90;;;;;;5093404;28;20218;-82
2022/05/10 05:31:00;;;;;;;13.68;10.57;;;16.90;99.90;;;;;;5092718;28;20897;-82
2022/05/10 05:33:27;;;;;;;11.60;10.20;;;16.90;99.90;;;;;;5084787;28;20200;-84
2022/05/10 05:35:55;;;;;;;12.63;10.23;;;16.80;99.90;;;;;;5094018;28;20197;-84
2022/05/10 05:38:24;;;;;;;15.87;9.73;;;17.00;99.90;;;;;;5094578;28;20236;-83
2022/05/10 05:40:51;;;;;;;13.80;10.33;;;17.00;99.90;;;;;;5092931;28;20283;-85
2022/05/10 05:43:20;;;;;;;13.50;10.07;;;17.10;99.90;;;;;;5093641;28;20192;-86
2022/05/10 05:45:49;;;;;;;12.40;11.07;;;17.30;99.90;;;;;;5093250;28;20220;-86
2022/05/10 05:48:17;;;;;;;10.90;9.87;;;17.40;99.90;;;;;;5090335;28;20222;-86
2022/05/10 05:50:44;;;;;;;15.50;11.03;;;17.40;99.90;;;;;;5097052;28;20205;-85
2022/05/10 05:53:15;;;;;;;26.03;10.33;;;17.30;99.90;;;;;;5097854;28;20637;-85
2022/05/10 05:55:48;;;;;;;18.13;10.47;;;17.40;99.90;;;;;;5097681;28;20196;-91
2022/05/10 05:58:21;;;;;;;17.37;10.43;;;17.20;99.90;;;;;;5097527;28;20281;-86
2022/05/10 06:00:48;;;;;;;16.10;10.50;;;17.40;99.90;;;;;;5097748;28;20221;-86
2022/05/10 06:03:15;;;;;;;17.20;11.03;;;17.40;99.90;;;;;;5097902;28;20205;-86
2022/05/10 06:05:43;;;;;;;22.13;11.13;;;17.50;99.90;;;;;;5097409;28;20640;-86
2022/05/10 06:08:18;;;;;;;17.43;10.67;;;17.60;99.90;;;;;;5097223;28;20201;-86
2022/05/10 06:10:50;;;;;;;19.43;11.30;;;17.80;99.90;;;;;;5096923;28;20646;-87
2022/05/10 06:13:20;;;;;;;16.70;10.53;;;17.70;99.90;;;;;;5097460;28;20262;-86
2022/05/10 06:15:50;;;;;;;29.20;11.53;;;18.00;99.90;;;;;;5086429;28;20241;-84
2022/05/10 06:18:18;;;;;;;20.70;10.87;;;17.80;99.90;;;;;;5090259;28;20718;-84
2022/05/10 06:20:46;;;;;;;18.67;11.43;;;17.80;99.90;;;;;;5084450;28;20409;-85
2022/05/10 06:23:12;;;;;;;18.50;10.33;;;17.90;99.90;;;;;;5085174;28;20437;-85
2022/05/10 06:25:42;;;;;;;18.83;10.07;;;18.10;99.90;;;;;;5084868;28;20193;-87
2022/05/10 06:28:08;;;;;;;14.17;10.70;;;18.20;99.90;;;;;;5077663;28;20206;-82
2022/05/10 06:30:35;;;;;;;13.33;10.10;;;18.40;99.90;;;;;;5076638;28;20199;-83
2022/05/10 06:33:02;;;;;;;12.97;10.20;;;18.40;99.90;;;;;;5077928;28;20213;-84
2022/05/10 06:35:29;;;;;;;16.50;10.53;;;18.60;99.90;;;;;;5095848;28;20211;-84
2022/05/10 06:40:42;;;;;;;14.73;9.27;;;18.60;99.90;;;;;;5085816;28;20219;-83
2022/05/10 06:43:09;;;;;;;22.17;9.77;;;18.80;99.90;;;;;;5081823;28;20205;-84
2022/05/10 06:45:36;;;;;;;14.93;10.52;;;18.90;99.90;;;;;;5075929;28;20922;-83
2022/05/10 06:48:03;;;;;;;14.43;9.93;;;18.90;99.90;;;;;;5090436;28;20210;-84
2022/05/10 06:50:30;;;;;;;13.00;9.13;;;18.80;99.90;;;;;;5096529;28;20212;-85
2022/05/10 06:53:00;;;;;;;14.10;9.33;;;18.90;99.90;;;;;;5096082;28;20619;-84
2022/05/10 06:55:28;;;;;;;10.53;8.90;;;18.90;99.90;;;;;;5096437;28;20276;-87
2022/05/10 06:57:56;;;;;;;13.40;9.67;;;19.00;99.90;;;;;;5095841;28;20211;-84
2022/05/10 07:00:23;;;;;;;16.50;9.50;;;19.10;99.90;;;;;;5095176;28;20229;-82
2022/05/10 07:02:50;;;;;;;12.57;9.13;;;19.20;99.90;;;;;;5079586;28;20647;-86
2022/05/10 07:05:18;;;;;;;10.23;8.87;;;19.30;99.90;;;;;;5075395;28;20220;-84
2022/05/10 07:07:45;;;;;;;16.50;9.47;;;19.50;99.90;;;;;;5074103;28;20209;-83
2022/05/10 07:10:13;;;;;;;14.73;10.05;;;19.70;99.90;;;;;;5074433;28;20431;-84
2022/05/10 07:12:42;;;;;;;10.57;9.00;;;19.80;99.90;;;;;;5075763;28;20202;-83
2022/05/10 07:15:13;;;;;;;10.03;8.97;;;19.60;99.90;;;;;;5073942;28;20286;-84
2022/05/10 07:17:40;;;;;;;14.63;8.87;;;19.40;99.90;;;;;;5074848;28;20212;-84
2022/05/10 07:20:09;;;;;;;10.50;8.40;;;19.50;99.90;;;;;;5079824;28;20242;-83
2022/05/10 07:22:36;;;;;;;11.03;8.77;;;19.50;99.90;;;;;;5094270;28;20652;-84
2022/05/10 07:25:04;;;;;;;14.33;9.20;;;19.60;99.90;;;;;;5095334;28;20672;-84
2022/05/10 07:27:31;;;;;;;11.90;8.40;;;19.70;99.90;;;;;;5095661;28;20205;-84
2022/05/10 07:29:58;;;;;;;13.83;9.43;;;19.70;99.90;;;;;;5095318;28;20212;-84
2022/05/10 07:32:27;;;;;;;12.90;9.50;;;19.80;99.90;;;;;;5095391;28;20196;-83
2022/05/10 07:34:54;;;;;;;15.57;8.93;;;19.80;99.90;;;;;;5095428;28;20556;-83
2022/05/10 07:37:21;;;;;;;10.53;8.60;;;19.70;99.90;;;;;;5095153;28;20210;-83
2022/05/10 07:39:48;;;;;;;14.00;9.10;;;19.80;99.90;;;;;;5095169;28;20237;-83
2022/05/10 07:42:15;;;;;;;11.27;8.00;;;19.80;99.90;;;;;;5093597;28;20247;-83
2022/05/10 07:44:41;;;;;;;11.50;8.17;;;19.90;99.90;;;;;;5095301;28;20209;-81
2022/05/10 07:47:09;;;;;;;10.93;8.03;;;20.10;99.90;;;;;;5095191;28;20212;-82
2022/05/10 07:49:37;;;;;;;9.97;7.70;;;20.10;99.90;;;;;;5094958;28;20559;-82
2022/05/10 07:52:05;;;;;;;9.67;8.10;;;20.20;99.90;;;;;;5094482;28;20210;-82
2022/05/10 07:54:32;;;;;;;14.33;8.70;;;20.30;99.90;;;;;;5094961;28;20689;-83
2022/05/10 07:56:58;;;;;;;10.50;8.18;;;20.30;99.90;;;;;;5094388;28;20435;-82
2022/05/10 07:59:28;;;;;;;15.87;7.70;;;20.50;99.90;;;;;;5086106;28;20221;-83
2022/05/10 08:01:55;;;;;;;11.60;7.60;;;20.50;99.90;;;;;;5094277;28;20207;-83
2022/05/10 08:04:21;;;;;;;10.73;7.53;;;20.60;99.90;;;;;;5094683;28;20201;-84
2022/05/10 08:06:50;;;;;;;9.90;6.93;;;20.80;99.90;;;;;;5094528;28;20200;-83
2022/05/10 08:09:19;;;;;;;11.90;7.73;;;20.90;99.90;;;;;;5094622;28;20638;-83
2022/05/10 08:11:46;;;;;;;13.50;6.70;;;20.80;99.90;;;;;;5093920;28;20285;-84
2022/05/10 08:14:13;;;;;;;18.23;8.77;;;20.80;99.90;;;;;;5088409;28;20215;-84
2022/05/10 08:16:40;;;;;;;7.87;7.07;;;21.00;99.90;;;;;;5092937;28;20217;-83
2022/05/10 08:19:07;;;;;;;8.03;6.77;;;21.10;99.90;;;;;;5090827;28;20209;-83
2022/05/10 08:21:33;;;;;;;16.33;7.23;;;21.20;99.90;;;;;;5086324;28;20191;-83
2022/05/10 08:24:02;;;;;;;10.80;7.30;;;21.30;99.90;;;;;;5079238;28;20192;-83
2022/05/10 08:26:29;;;;;;;11.97;7.43;;;21.40;99.90;;;;;;5094773;28;20205;-83
2022/05/10 08:28:56;;;;;;;12.07;7.30;;;21.50;99.90;;;;;;5094297;28;20381;-81
2022/05/10 08:31:23;;;;;;;7.77;6.90;;;21.70;99.90;;;;;;5094261;28;20646;-82
2022/05/10 08:33:50;;;;;;;11.47;7.63;;;21.80;99.90;;;;;;5094186;28;20291;-81
2022/05/10 08:36:16;;;;;;;12.77;7.17;;;21.90;99.90;;;;;;5094018;28;20191;-82
2022/05/10 08:38:43;;;;;;;50.20;9.17;;;21.90;99.90;;;;;;5093949;28;20214;-83
2022/05/10 08:41:15;;;;;;;7.47;6.77;;;21.90;99.90;;;;;;5094111;28;20199;-83
2022/05/10 08:43:46;;;;;;;9.77;7.03;;;21.90;99.90;;;;;;5093827;28;20187;-85
2022/05/10 08:46:17;;;;;;;13.00;7.00;;;21.90;99.90;;;;;;5074041;28;20303;-82
2022/05/10 08:48:46;;;;;;;6.90;6.40;;;22.00;99.90;;;;;;5073637;28;20189;-82
2022/05/10 08:51:15;;;;;;;10.97;6.60;;;22.00;99.90;;;;;;5074215;28;20216;-82
2022/05/10 08:53:41;;;;;;;25.07;7.47;;;22.10;99.90;;;;;;5074017;28;20663;-87
2022/05/10 08:56:18;;;;;;;16.03;6.40;;;22.30;99.90;;;;;;5074121;28;20205;-89
2022/05/10 08:58:55;;;;;;;13.27;6.07;;;22.50;99.90;;;;;;5073747;28;20227;-87
2022/05/10 09:01:26;;;;;;;60.10;8.87;;;22.40;99.90;;;;;;5073661;28;20278;-90
2022/05/10 09:04:00;;;;;;;14.07;6.50;;;22.30;99.90;;;;;;5073685;28;20246;-87
2022/05/10 09:06:36;;;;;;;5.93;5.40;;;22.40;99.90;;;;;;5073526;28;20208;-86
2022/05/10 09:09:24;;;;;;;6.83;6.03;;;22.50;99.90;;;;;;5074012;28;20204;-90
2022/05/10 09:11:56;;;;;;;11.18;6.47;;;22.50;99.90;;;;;;5073275;28;20440;-88
2022/05/10 09:14:29;;;;;;;33.73;8.13;;;22.80;99.90;;;;;;5073766;28;20216;-86
2022/05/10 09:16:57;;;;;;;8.57;5.53;;;22.60;99.90;;;;;;5073584;28;20205;-87
2022/05/10 09:19:34;;;;;;;7.67;5.70;;;22.60;99.90;;;;;;5072822;28;20298;-87
2022/05/10 09:22:07;;;;;;;18.20;7.13;;;22.80;99.90;;;;;;5073207;28;20280;-87
2022/05/10 09:24:45;;;;;;;6.77;6.03;;;22.90;99.90;;;;;;5073266;28;20564;-84
2022/05/10 09:27:14;;;;;;;20.97;6.83;;;22.90;99.90;;;;;;5073269;28;20202;-83
2022/05/10 09:29:44;;;;;;;7.43;5.50;;;23.00;99.90;;;;;;5072856;28;20213;-84
2022/05/10 09:35:10;;;;;;;8.07;5.73;;;23.20;99.90;;;;;;5073135;28;20220;-82
2022/05/10 09:37:40;;;;;;;6.20;5.60;;;23.20;99.90;;;;;;5075812;28;20201;-80
2022/05/10 09:40:19;;;;;;;51.07;8.87;;;23.50;99.90;;;;;;5081115;28;20571;-81
2022/05/10 09:42:49;;;;;;;8.37;5.67;;;23.20;99.90;;;;;;5072846;28;20568;-84
2022/05/10 09:45:18;;;;;;;9.93;5.67;;;23.20;99.90;;;;;;5072786;28;20314;-82
2022/05/10 09:47:56;;;;;;;9.37;5.90;;;23.30;99.90;;;;;;5073133;28;20200;-86
2022/05/10 09:50:28;;;;;;;9.73;5.63;;;23.50;99.90;;;;;;5072986;28;20208;-86
2022/05/10 09:53:10;;;;;;;6.87;4.90;;;23.70;99.90;;;;;;5072821;28;20198;-85
2022/05/10 09:55:37;;;;;;;10.20;5.13;;;23.90;99.90;;;;;;5072865;28;20533;-84
2022/05/10 09:58:18;;;;;;;6.47;4.77;;;24.10;99.90;;;;;;5072477;28;20237;-85
2022/05/10 10:00:51;;;;;;;19.77;6.23;;;24.10;99.90;;;;;;5072814;28;20600;-85
2022/05/10 10:03:26;;;;;;;7.70;5.13;;;24.10;99.90;;;;;;5072872;28;20201;-84
2022/05/10 10:05:55;;;;;;;8.43;5.00;;;24.00;99.90;;;;;;5072692;28;20189;-85
2022/05/10 10:08:38;;;;;;;12.47;5.43;;;23.90;99.90;;;;;;5072936;28;20259;-85
2022/05/10 10:11:29;;;;;;;7.17;5.33;;;23.90;99.90;;;;;;5072676;28;20641;-85
2022/05/10 10:14:00;;;;;;;8.60;5.27;;;23.90;99.90;;;;;;5072708;28;20222;-85
2022/05/10 10:16:30;;;;;;;8.50;5.67;;;24.10;99.90;;;;;;5072082;28;20721;-87
2022/05/10 10:19:02;;;;;;;38.60;7.47;;;24.20;99.90;;;;;;5080394;28;20209;-83
2022/05/10 10:21:39;;;;;;;6.23;5.43;;;24.10;99.90;;;;;;5081705;28;20607;-83
2022/05/10 10:24:06;;;;;;;10.88;5.70;;;24.30;99.90;;;;;;5080247;28;20431;-85
2022/05/10 10:26:39;;;;;;;9.20;4.83;;;24.20;99.90;;;;;;5082456;28;20660;-84
2022/05/10 10:29:13;;;;;;;8.83;5.33;;;24.20;99.90;;;;;;5083790;28;20665;-84
2022/05/10 10:31:43;;;;;;;6.70;5.13;;;24.30;99.90;;;;;;5071540;28;20198;-86
2022/05/10 10:34:15;;;;;;;7.70;5.80;;;24.40;99.90;;;;;;5085190;28;20629;-85
2022/05/10 10:36:50;;;;;;;5.73;5.23;;;24.30;99.90;;;;;;5091371;28;20205;-83
2022/05/10 10:39:24;;;;;;;6.13;5.10;;;24.30;99.90;;;;;;5088854;28;20731;-84
2022/05/10 10:41:55;;;;;;;11.77;6.27;;;24.20;99.90;;;;;;5096687;28;20201;-83
2022/05/10 10:44:26;;;;;;;6.03;5.37;;;24.20;99.90;;;;;;5089960;28;20221;-83
2022/05/10 10:47:08;;;;;;;9.93;5.57;;;24.10;99.90;;;;;;5092534;28;20893;-85
2022/05/10 10:49:40;;;;;;;8.73;5.83;;;24.30;99.90;;;;;;5087695;28;20204;-81
2022/05/10 10:52:07;;;;;;;9.17;5.10;;;24.50;99.90;;;;;;5076002;28;20194;-82
2022/05/10 10:54:34;;;;;;;5.30;4.90;;;24.60;99.90;;;;;;5076131;28;20672;-82
2022/05/10 10:57:17;;;;;;;14.50;5.83;;;24.80;99.90;;;;;;5075580;28;20212;-83
2022/05/10 11:00:16;;;;;;;14.73;5.10;;;24.60;99.90;;;;;;5075549;28;20245;-81
2022/05/10 11:03:08;;;;;;;5.97;4.97;;;24.40;99.90;;;;;;5075509;28;20209;-85
2022/05/10 11:06:09;;;;;;;5.57;4.80;;;24.20;99.90;;;;;;5075873;28;20190;-89
2022/05/10 11:08:56;;;;;;;7.50;5.30;;;24.40;99.90;;;;;;5075725;28;20677;-84
2022/05/10 11:11:36;;;;;;;8.37;4.80;;;24.40;99.90;;;;;;5075794;28;20201;-80
2022/05/10 11:14:14;;;;;;;15.80;5.30;;;24.50;99.90;;;;;;5075427;28;20197;-81
2022/05/10 11:16:47;;;;;;;8.50;4.87;;;24.40;99.90;;;;;;5074335;28;20700;-83
2022/05/10 11:19:42;;;;;;;5.70;4.90;;;24.70;99.90;;;;;;5076401;28;20206;-90
2022/05/10 11:22:22;;;;;;;33.47;6.90;;;25.10;99.90;;;;;;5076792;28;20206;-89
2022/05/10 11:24:56;;;;;;;6.07;4.50;;;25.30;99.90;;;;;;5076270;28;20545;-81
2022/05/10 11:27:37;;;;;;;6.43;4.97;;;25.20;99.90;;;;;;5075247;28;20201;-83
2022/05/10 11:30:08;;;;;;;9.07;5.07;;;25.30;99.90;;;;;;5075175;28;20242;-81
2022/05/10 11:33:01;;;;;;;11.73;5.10;;;25.40;99.90;;;;;;5074988;28;20197;-82
2022/05/10 11:35:52;;;;;;;41.00;6.67;;;25.40;99.90;;;;;;5076179;28;20202;-81
2022/05/10 11:38:29;;;;;;;14.33;4.90;;;25.40;99.90;;;;;;5083979;28;20204;-80
2022/05/10 11:41:07;;;;;;;11.97;4.97;;;25.30;99.90;;;;;;5089140;28;20570;-81
2022/05/10 11:44:00;;;;;;;6.33;5.03;;;25.20;99.90;;;;;;5094594;28;20547;-82
2022/05/10 11:46:56;;;;;;;10.97;5.20;;;25.10;99.90;;;;;;5095303;28;20237;-83
2022/05/10 11:50:11;;;;;;;8.00;4.60;;;25.10;99.90;;;;;;5095313;28;20201;-81
2022/05/10 11:53:03;;;;;;;152.43;13.47;;;25.10;99.90;;;;;;5094936;28;20189;-86
2022/05/10 11:55:35;;;;;;;16.73;5.17;;;24.90;99.90;;;;;;5088014;28;20211;-82
2022/05/10 11:58:05;;;;;;;17.23;5.50;;;25.00;99.90;;;;;;5094511;28;20426;-81
2022/05/10 12:00:55;;;;;;;8.13;4.07;;;24.70;99.90;;;;;;5094920;28;20248;-81
2022/05/10 12:03:56;;;;;;;8.23;4.20;;;24.70;99.90;;;;;;5090129;28;20205;-80
2022/05/10 12:06:35;;;;;;;59.97;6.87;;;24.70;99.90;;;;;;5095048;28;20207;-80
2022/05/10 12:09:06;;;;;;;8.53;3.80;;;24.40;99.90;;;;;;5094662;28;20208;-82
2022/05/10 12:11:40;;;;;;;8.07;3.57;;;24.60;99.90;;;;;;5094740;28;20291;-86
2022/05/10 12:22:51;;;;;;;14.83;4.23;;;24.60;99.90;;;;;;5081903;28;20260;-83
2022/05/10 12:25:54;;;;;;;5.33;3.33;;;24.40;99.90;;;;;;5083918;28;20197;-81
2022/05/10 12:28:46;;;;;;;6.13;3.70;;;24.60;99.90;;;;;;5091768;28;20563;-84
2022/05/10 12:32:01;;;;;;;8.80;3.83;;;24.50;99.90;;;;;;5094241;28;20212;-83
2022/05/10 12:34:47;;;;;;;27.53;5.10;;;24.80;99.90;;;;;;5091013;28;20209;-88
2022/05/10 12:37:41;;;;;;;16.80;4.40;;;24.90;99.90;;;;;;5100195;28;20197;-88
2022/05/10 12:40:31;;;;;;;5.40;3.30;;;24.90;99.90;;;;;;5097589;28;20225;-88
2022/05/10 12:43:23;;;;;;;6.50;3.53;;;25.10;99.90;;;;;;5075391;28;20251;-88
2022/05/10 12:45:57;;;;;;;4.20;3.80;;;25.10;99.90;;;;;;5074507;28;20217;-88
2022/05/10 12:48:40;;;;;;;24.97;4.70;;;25.10;99.90;;;;;;5075128;28;20717;-89
2022/05/10 12:51:20;;;;;;;20.37;4.33;;;25.10;99.90;;;;;;5075482;28;20206;-87
2022/05/10 12:53:56;;;;;;;11.73;3.70;;;25.00;99.90;;;;;;5076887;28;20570;-89
2022/05/10 12:56:26;;;;;;;7.27;3.40;;;24.90;99.90;;;;;;5074970;28;20228;-89
2022/05/10 12:58:57;;;;;;;6.17;3.83;;;24.90;99.80;;;;;;5074546;28;20237;-81
2022/05/10 13:01:28;;;;;;;5.27;3.60;;;24.90;99.90;;;;;;5073646;28;20635;-87
2022/05/10 13:03:59;;;;;;;5.43;3.33;;;25.00;99.90;;;;;;5073861;28;20208;-85
2022/05/10 13:06:37;;;;;;;4.23;3.30;;;25.10;99.60;;;;;;5073786;28;20221;-86
2022/05/10 13:09:29;;;;;;;3.50;3.20;;;25.40;99.80;;;;;;5074024;28;20193;-86
2022/05/10 13:12:01;;;;;;;15.87;4.40;;;25.40;99.00;;;;;;5072887;28;20727;-87
2022/05/10 13:14:32;;;;;;;7.90;3.63;;;25.00;98.80;;;;;;5073295;28;20192;-88